329  
SXUS55 KTFX 221744  
OSOTFX  
AREA AWOS OBSERVATIONS  
NATIONAL WEATHER SERVICE GREAT FALLS MT  
1044 AM MST TUE JAN 22 2019  
 
METAR KPO1 221745Z AUTO 26008KT 9SM M03/M06 A3013 RMK POPLAR  
METAR K1S3 221745Z AUTO 24006KT 10SM M03/M08 A3017 RMK FORSYTH  
METAR KS71 221745Z AUTO 06003KT 5SM M12/M13 A3004 RMK CHINOOK  
METAR K38S 221745Z AUTO 03004KT 10SM M08/M11 A3029 RMK DEER LODGE  
METAR K3U3 221745Z AUTO 20008KT 10SM M06/M13 A3024 RMK ANACONDA  
METAR KS59 221745Z AUTO 00000KT 10SM M07/M08 RMK LIBBY  
 
CLICK HERE TO GO TO PREVIOUS BULLETINS.

The Nexlab MT Page Main Text Page